Time;durP1;ratioP1;P1;durP2;ratioP2;P2;SDS_P1;SDS_P2;PMS_P1;PMS_P2;Temp;Humidity;BMP_temperature;BMP_pressure;BME280_temperature;BME280_humidity;BME280_pressure;Samples;Min_cycle;Max_cycle;Signal;HPM_P1;HPM_P2
2021/03/10 00:01:09;;;;;;;2.33;1.30;;;22.90;44.50;;;;;;4987506;28;20042;-66
2021/03/10 00:03:35;;;;;;;2.70;1.30;;;22.80;44.40;;;;;;4996918;28;20033;-66
2021/03/10 00:06:00;;;;;;;3.03;1.30;;;22.90;44.50;;;;;;4996068;28;20034;-66
2021/03/10 00:08:26;;;;;;;2.40;1.30;;;22.80;44.40;;;;;;5005212;28;20028;-66
2021/03/10 00:10:52;;;;;;;2.80;1.50;;;22.80;44.40;;;;;;5002015;28;20700;-66
2021/03/10 00:13:17;;;;;;;2.40;1.33;;;22.80;44.40;;;;;;5006002;28;20473;-66
2021/03/10 00:15:43;;;;;;;2.47;1.13;;;22.80;44.40;;;;;;5005877;28;20095;-66
2021/03/10 00:18:08;;;;;;;1.92;1.20;;;22.80;44.40;;;;;;5005459;28;20100;-65
2021/03/10 00:20:34;;;;;;;3.50;1.20;;;22.80;44.40;;;;;;5005890;28;20033;-66
2021/03/10 00:23:00;;;;;;;2.33;1.25;;;22.80;44.50;;;;;;5006645;28;20038;-66
2021/03/10 00:25:25;;;;;;;3.90;1.42;;;22.80;44.40;;;;;;5007161;28;20065;-66
2021/03/10 00:27:51;;;;;;;2.25;1.20;;;22.70;44.40;;;;;;5004297;28;20088;-66
2021/03/10 00:30:17;;;;;;;2.03;1.10;;;22.70;44.40;;;;;;5004217;28;20018;-66
2021/03/10 00:32:43;;;;;;;1.80;1.10;;;22.80;44.40;;;;;;5006330;28;20034;-66
2021/03/10 00:35:09;;;;;;;1.70;1.13;;;22.70;44.40;;;;;;5005525;28;20101;-66
2021/03/10 00:37:35;;;;;;;2.03;1.30;;;22.70;44.40;;;;;;5001307;28;20458;-67
2021/03/10 00:40:00;;;;;;;2.05;1.10;;;22.70;44.40;;;;;;5005686;28;20034;-66
2021/03/10 00:42:26;;;;;;;2.00;1.10;;;22.70;44.40;;;;;;5005766;28;20129;-66
2021/03/10 00:44:52;;;;;;;1.85;1.10;;;22.70;44.40;;;;;;5004042;28;20029;-66
2021/03/10 00:47:17;;;;;;;2.20;1.25;;;22.70;44.40;;;;;;5006171;28;20424;-66
2021/03/10 00:49:43;;;;;;;2.38;1.17;;;22.70;44.40;;;;;;5008733;28;20129;-66
2021/03/10 00:52:09;;;;;;;1.40;1.00;;;22.70;44.40;;;;;;5010121;28;20072;-66
2021/03/10 00:54:36;;;;;;;2.17;1.17;;;22.70;44.40;;;;;;5009850;28;20057;-66
2021/03/10 00:57:02;;;;;;;1.90;1.10;;;22.60;44.40;;;;;;5005465;28;20109;-66
2021/03/10 00:59:28;;;;;;;1.73;1.20;;;22.70;44.40;;;;;;5008829;28;20030;-66
2021/03/10 01:01:54;;;;;;;1.70;1.08;;;22.60;44.30;;;;;;5011297;28;20038;-66
2021/03/10 01:04:19;;;;;;;2.17;1.20;;;22.60;44.40;;;;;;5011469;28;20503;-66
2021/03/10 01:06:45;;;;;;;1.73;1.00;;;22.60;44.40;;;;;;5011649;28;20037;-66
2021/03/10 01:09:11;;;;;;;1.77;1.05;;;22.60;44.40;;;;;;5009924;28;20025;-66
2021/03/10 01:11:37;;;;;;;2.58;1.17;;;22.60;44.40;;;;;;5010340;28;20033;-65
2021/03/10 01:14:04;;;;;;;2.30;1.20;;;22.60;44.40;;;;;;5007717;28;20026;-66
2021/03/10 01:16:29;;;;;;;1.88;1.15;;;22.60;44.40;;;;;;5010201;28;20030;-66
2021/03/10 01:18:56;;;;;;;1.70;1.13;;;22.60;44.40;;;;;;5007543;28;20037;-66
2021/03/10 01:21:23;;;;;;;1.75;1.05;;;22.60;44.40;;;;;;5012665;28;20040;-66
2021/03/10 01:23:49;;;;;;;1.80;1.08;;;22.60;44.40;;;;;;5009294;28;20499;-66
2021/03/10 01:26:14;;;;;;;2.22;1.15;;;22.50;44.30;;;;;;5011466;28;20030;-66
2021/03/10 01:28:40;;;;;;;1.35;0.93;;;22.50;44.30;;;;;;5009308;28;20030;-66
2021/03/10 01:31:06;;;;;;;2.78;1.10;;;22.50;44.40;;;;;;5009142;28;20117;-66
2021/03/10 01:33:31;;;;;;;2.13;1.10;;;22.50;44.40;;;;;;5010180;28;20036;-67
2021/03/10 01:35:57;;;;;;;1.55;1.05;;;22.50;44.40;;;;;;5003619;28;20394;-66
2021/03/10 01:38:22;;;;;;;1.77;1.13;;;22.50;44.30;;;;;;5002997;28;20082;-66
2021/03/10 01:40:48;;;;;;;2.08;1.20;;;22.50;44.30;;;;;;5009572;28;20183;-66
2021/03/10 01:43:14;;;;;;;1.98;1.10;;;22.50;44.40;;;;;;5010450;28;20162;-66
2021/03/10 01:45:39;;;;;;;2.05;1.10;;;22.50;44.30;;;;;;5005831;28;20079;-66
2021/03/10 01:48:09;;;;;;;1.83;1.10;;;22.50;44.30;;;;;;5010003;28;20081;-66
2021/03/10 01:50:36;;;;;;;1.58;1.02;;;22.40;44.30;;;;;;5010651;28;20022;-65
2021/03/10 01:53:03;;;;;;;1.58;1.00;;;22.40;44.30;;;;;;5009767;28;20034;-66
2021/03/10 01:55:28;;;;;;;1.77;1.08;;;22.40;44.30;;;;;;5008424;28;20140;-66
2021/03/10 01:57:54;;;;;;;1.55;1.00;;;22.40;44.30;;;;;;5004033;28;20078;-66
2021/03/10 02:00:21;;;;;;;1.58;1.02;;;22.40;44.30;;;;;;5004452;28;20034;-67
2021/03/10 02:02:47;;;;;;;1.67;1.00;;;22.40;44.30;;;;;;5004502;28;20042;-66
2021/03/10 02:05:15;;;;;;;1.77;1.00;;;22.40;44.30;;;;;;5009390;28;20041;-66
2021/03/10 02:07:52;;;;;;;1.42;1.10;;;22.40;44.30;;;;;;5005543;28;20022;-66
2021/03/10 02:10:44;;;;;;;2.20;1.20;;;22.40;44.30;;;;;;5006409;28;20104;-66
2021/03/10 02:13:13;;;;;;;1.42;0.90;;;22.40;44.40;;;;;;5001463;28;20037;-66
2021/03/10 02:15:54;;;;;;;1.30;0.90;;;22.40;44.40;;;;;;5007539;28;20546;-66
2021/03/10 02:18:26;;;;;;;1.90;1.00;;;22.40;44.40;;;;;;5001588;28;20061;-66
2021/03/10 02:20:55;;;;;;;2.03;1.00;;;22.30;44.30;;;;;;5007368;28;20362;-66
2021/03/10 02:23:43;;;;;;;1.38;1.00;;;22.40;44.40;;;;;;5022497;28;20030;-66
2021/03/10 02:26:31;;;;;;;2.15;1.20;;;22.30;44.30;;;;;;4994984;28;20045;-66
2021/03/10 02:29:04;;;;;;;2.13;1.00;;;22.30;44.30;;;;;;5004785;28;20034;-66
2021/03/10 02:31:33;;;;;;;1.63;1.10;;;22.30;44.30;;;;;;5006980;28;20038;-66
2021/03/10 02:34:01;;;;;;;1.73;1.00;;;22.30;44.30;;;;;;5008245;28;20025;-66
2021/03/10 02:36:27;;;;;;;1.88;1.30;;;22.30;44.40;;;;;;5008229;28;20033;-66
2021/03/10 02:38:54;;;;;;;2.63;1.10;;;22.30;44.40;;;;;;5007134;28;20051;-66
2021/03/10 02:41:21;;;;;;;2.13;1.00;;;22.30;44.40;;;;;;5008456;28;20053;-66
2021/03/10 02:43:49;;;;;;;1.30;0.90;;;22.30;44.40;;;;;;4999619;28;20132;-66
2021/03/10 02:46:16;;;;;;;2.42;1.10;;;22.30;44.40;;;;;;4987579;28;20479;-66
2021/03/10 02:48:44;;;;;;;1.58;1.00;;;22.30;44.50;;;;;;4996935;28;20034;-66
2021/03/10 02:51:11;;;;;;;1.67;1.02;;;22.30;44.40;;;;;;5003317;28;20023;-65
2021/03/10 02:53:40;;;;;;;1.40;0.90;;;22.30;44.40;;;;;;5003342;28;20104;-66
2021/03/10 02:56:09;;;;;;;1.48;1.15;;;22.30;44.40;;;;;;4996537;28;20482;-66
2021/03/10 02:58:35;;;;;;;1.42;0.80;;;22.20;44.40;;;;;;5007855;28;20026;-66
2021/03/10 03:01:01;;;;;;;1.40;0.90;;;22.20;44.40;;;;;;5003459;28;20104;-66
2021/03/10 03:03:26;;;;;;;1.20;0.90;;;22.20;44.40;;;;;;5003499;28;20026;-66
2021/03/10 03:05:52;;;;;;;1.30;0.80;;;22.20;44.40;;;;;;4992120;28;20038;-66
2021/03/10 03:08:18;;;;;;;1.77;1.10;;;22.20;44.40;;;;;;4997562;28;20163;-66
2021/03/10 03:10:43;;;;;;;1.90;1.00;;;22.20;44.40;;;;;;5007437;28;20034;-66
2021/03/10 03:13:14;;;;;;;1.80;1.00;;;22.20;44.40;;;;;;5005944;28;20041;-66
2021/03/10 03:15:49;;;;;;;1.73;0.90;;;22.20;44.40;;;;;;5005546;28;20457;-66
2021/03/10 03:18:15;;;;;;;1.60;1.00;;;22.20;44.40;;;;;;5005184;28;20029;-66
2021/03/10 03:20:41;;;;;;;1.73;0.93;;;22.20;44.40;;;;;;5007270;28;20053;-66
2021/03/10 03:23:09;;;;;;;1.70;1.00;;;22.20;44.40;;;;;;5000201;28;20041;-66
2021/03/10 03:25:39;;;;;;;2.05;1.00;;;22.20;44.40;;;;;;5005646;28;20030;-66
2021/03/10 03:28:07;;;;;;;1.17;0.77;;;22.20;44.40;;;;;;5008523;28;20034;-66
2021/03/10 03:30:35;;;;;;;1.48;0.90;;;22.20;44.40;;;;;;5001085;28;20564;-66
2021/03/10 03:33:07;;;;;;;1.38;0.93;;;22.10;44.40;;;;;;4990679;28;20096;-66
2021/03/10 03:35:33;;;;;;;1.67;1.00;;;22.10;44.40;;;;;;5007457;28;20116;-66
2021/03/10 03:37:59;;;;;;;1.85;0.80;;;22.20;44.40;;;;;;5006305;28;20108;-66
2021/03/10 03:40:26;;;;;;;1.55;0.93;;;22.10;44.40;;;;;;5006555;28;20612;-66
2021/03/10 03:42:52;;;;;;;1.42;0.90;;;22.10;44.40;;;;;;5007381;28;20057;-66
2021/03/10 03:45:20;;;;;;;1.40;0.90;;;22.10;44.40;;;;;;5006178;28;20142;-66
2021/03/10 03:47:50;;;;;;;1.55;0.90;;;22.10;44.40;;;;;;5005317;28;20030;-66
2021/03/10 03:50:16;;;;;;;1.40;1.08;;;22.10;44.40;;;;;;5009205;28;20358;-66
2021/03/10 03:52:43;;;;;;;1.48;0.90;;;22.10;44.40;;;;;;5009104;28;20025;-66
2021/03/10 03:55:10;;;;;;;1.45;0.93;;;22.10;44.40;;;;;;5007780;28;20024;-66
2021/03/10 03:57:37;;;;;;;1.40;0.80;;;22.10;44.40;;;;;;5005679;28;20555;-66
2021/03/10 04:00:08;;;;;;;1.70;1.00;;;22.10;44.40;;;;;;5008482;28;20022;-66
2021/03/10 04:02:34;;;;;;;1.35;0.90;;;22.10;44.40;;;;;;5002729;28;20125;-66
2021/03/10 04:04:59;;;;;;;1.20;0.80;;;22.10;44.40;;;;;;5006841;28;20192;-66
2021/03/10 04:07:25;;;;;;;1.52;0.80;;;22.10;44.40;;;;;;5000364;28;20014;-66
2021/03/10 04:09:50;;;;;;;0.70;0.70;;;22.10;44.50;;;;;;5007668;28;20030;-66
2021/03/10 04:12:16;;;;;;;1.30;0.88;;;22.10;44.40;;;;;;5008608;28;20049;-66
2021/03/10 04:14:42;;;;;;;1.23;0.90;;;22.10;44.50;;;;;;5007916;28;20101;-66
2021/03/10 04:17:07;;;;;;;1.20;0.90;;;22.00;44.40;;;;;;5001896;28;20051;-66
2021/03/10 04:19:33;;;;;;;1.38;0.80;;;22.10;44.50;;;;;;5007405;28;20076;-66
2021/03/10 04:21:59;;;;;;;2.25;0.90;;;22.00;44.40;;;;;;5008306;28;20103;-66
2021/03/10 04:24:24;;;;;;;1.65;0.95;;;22.00;44.40;;;;;;5008728;28;20112;-66
2021/03/10 04:26:51;;;;;;;1.20;0.90;;;22.10;44.50;;;;;;5007426;28;20373;-66
2021/03/10 04:29:17;;;;;;;1.30;0.80;;;22.00;44.40;;;;;;5007403;28;20540;-66
2021/03/10 04:31:43;;;;;;;1.35;0.80;;;22.10;44.50;;;;;;5004501;28;20030;-66
2021/03/10 04:34:09;;;;;;;1.75;0.90;;;22.00;44.50;;;;;;5007163;28;20462;-66
2021/03/10 04:36:34;;;;;;;1.35;0.95;;;22.00;44.50;;;;;;5004755;28;20418;-66
2021/03/10 04:39:00;;;;;;;1.63;1.00;;;22.00;44.50;;;;;;5004546;28;20112;-66
2021/03/10 04:41:25;;;;;;;0.98;0.88;;;22.00;44.50;;;;;;5007667;28;20034;-66
2021/03/10 04:43:51;;;;;;;1.30;0.80;;;22.00;44.50;;;;;;5008562;28;20057;-66
2021/03/10 04:46:17;;;;;;;1.55;0.90;;;22.00;44.50;;;;;;5005309;28;20034;-66
2021/03/10 04:48:44;;;;;;;1.30;0.85;;;22.00;44.50;;;;;;5002649;28;20029;-66
2021/03/10 04:51:09;;;;;;;1.23;0.82;;;22.00;44.50;;;;;;5005615;28;20389;-66
2021/03/10 04:53:35;;;;;;;0.85;0.80;;;22.00;44.50;;;;;;5007858;28;20029;-66
2021/03/10 04:56:01;;;;;;;1.08;0.80;;;22.00;44.50;;;;;;5006003;28;20092;-66
2021/03/10 04:58:27;;;;;;;0.93;0.80;;;22.00;44.50;;;;;;5007803;28;20033;-66
2021/03/10 05:00:53;;;;;;;0.90;0.80;;;22.00;44.50;;;;;;4999895;28;20042;-66
2021/03/10 05:03:18;;;;;;;0.90;0.70;;;22.00;44.50;;;;;;4986842;28;20129;-66
2021/03/10 05:05:44;;;;;;;1.27;0.80;;;22.00;44.50;;;;;;5006779;28;20033;-66
2021/03/10 05:08:11;;;;;;;1.45;0.88;;;22.00;44.50;;;;;;5004586;28;20087;-66
2021/03/10 05:10:37;;;;;;;1.42;0.80;;;22.00;44.50;;;;;;4989804;28;20110;-67
2021/03/10 05:13:02;;;;;;;1.02;0.77;;;22.00;44.50;;;;;;5000191;28;20184;-66
2021/03/10 05:15:28;;;;;;;1.20;0.88;;;22.00;44.50;;;;;;5003975;28;20457;-66
2021/03/10 05:17:54;;;;;;;1.67;0.80;;;22.00;44.50;;;;;;5004536;28;20029;-66
2021/03/10 05:20:19;;;;;;;1.13;0.80;;;21.90;44.50;;;;;;5004468;28;20056;-66
2021/03/10 05:22:45;;;;;;;1.70;0.80;;;22.00;44.60;;;;;;5005376;28;20652;-66
2021/03/10 05:25:11;;;;;;;1.02;0.70;;;21.90;44.50;;;;;;5007724;28;20042;-66
2021/03/10 05:27:37;;;;;;;1.08;0.85;;;21.90;44.50;;;;;;5007758;28;20381;-66
2021/03/10 05:30:06;;;;;;;1.98;1.00;;;22.00;44.60;;;;;;5004773;28;20022;-66
2021/03/10 05:32:32;;;;;;;1.63;0.90;;;22.00;44.70;;;;;;5005311;28;20061;-66
2021/03/10 05:34:57;;;;;;;1.33;0.80;;;21.90;44.60;;;;;;5008442;28;20053;-66
2021/03/10 05:37:23;;;;;;;1.52;0.95;;;22.00;44.70;;;;;;5009255;28;20173;-66
2021/03/10 05:39:48;;;;;;;1.50;1.10;;;22.00;44.70;;;;;;5011566;28;20038;-66
2021/03/10 05:42:14;;;;;;;0.95;0.73;;;22.00;44.70;;;;;;5011165;28;20314;-66
2021/03/10 05:44:40;;;;;;;1.30;0.80;;;22.00;44.70;;;;;;5011419;28;20030;-66
2021/03/10 05:47:07;;;;;;;1.00;0.80;;;21.90;45.20;;;;;;5005438;28;20113;-66
2021/03/10 05:49:33;;;;;;;3.13;0.90;;;21.90;44.70;;;;;;5006146;28;20093;-66
2021/03/10 05:52:03;;;;;;;1.45;0.82;;;21.90;45.20;;;;;;5010870;28;20018;-66
2021/03/10 05:54:29;;;;;;;1.67;0.90;;;21.90;44.70;;;;;;5010284;28;20148;-65
2021/03/10 05:56:56;;;;;;;2.05;1.00;;;21.90;44.70;;;;;;5007182;28;20558;-66
2021/03/10 05:59:22;;;;;;;1.13;0.80;;;21.90;44.70;;;;;;5005829;28;20033;-66
2021/03/10 06:01:48;;;;;;;2.03;1.10;;;21.90;44.70;;;;;;4996774;28;20043;-66
2021/03/10 06:04:13;;;;;;;1.95;1.05;;;21.90;44.70;;;;;;5009164;28;20049;-66
2021/03/10 06:06:41;;;;;;;1.83;0.90;;;21.90;44.70;;;;;;5009475;28;20485;-66
2021/03/10 06:09:18;;;;;;;1.33;0.90;;;21.90;45.20;;;;;;5008018;28;20036;-66
2021/03/10 06:12:12;;;;;;;1.35;0.95;;;21.80;44.60;;;;;;5003660;28;20056;-66
2021/03/10 06:14:38;;;;;;;1.45;0.80;;;21.90;44.70;;;;;;4991552;28;20034;-66
2021/03/10 06:17:09;;;;;;;1.55;1.00;;;21.90;44.70;;;;;;5007031;28;20461;-66
2021/03/10 06:19:48;;;;;;;1.48;0.90;;;21.80;44.60;;;;;;5007470;28;20499;-66
2021/03/10 06:22:15;;;;;;;1.48;0.80;;;21.90;44.70;;;;;;5006427;28;20044;-66
2021/03/10 06:24:42;;;;;;;1.88;1.00;;;21.80;44.60;;;;;;5011094;28;20743;-65
2021/03/10 06:27:08;;;;;;;1.63;0.90;;;21.90;44.70;;;;;;5010139;28;20547;-66
2021/03/10 06:29:33;;;;;;;2.50;1.10;;;21.90;44.60;;;;;;4997161;28;20232;-70
2021/03/10 06:32:09;;;;;;;1.48;1.02;;;21.90;45.70;;;;;;5004291;28;20129;-72
2021/03/10 06:34:49;;;;;;;2.65;1.27;;;21.90;45.40;;;;;;5006801;28;20038;-71
2021/03/10 06:37:24;;;;;;;1.67;1.05;;;22.10;45.20;;;;;;5009594;28;20030;-71
2021/03/10 06:39:50;;;;;;;2.00;1.20;;;22.20;44.80;;;;;;5008978;28;20022;-70
2021/03/10 06:42:18;;;;;;;1.90;1.10;;;22.40;44.60;;;;;;5008369;28;20690;-70
2021/03/10 06:44:51;;;;;;;1.48;1.00;;;22.50;44.40;;;;;;5006362;28;20029;-70
2021/03/10 06:47:18;;;;;;;1.92;1.13;;;22.60;44.30;;;;;;5001045;28;20044;-71
2021/03/10 06:49:53;;;;;;;3.08;1.30;;;22.70;44.00;;;;;;5008725;28;20025;-73
2021/03/10 06:52:18;;;;;;;1.55;1.08;;;22.70;44.00;;;;;;5010077;28;20025;-70
2021/03/10 06:54:57;;;;;;;2.33;1.13;;;22.80;43.90;;;;;;5008467;28;20087;-75
2021/03/10 06:57:23;;;;;;;2.10;1.15;;;22.90;43.70;;;;;;5010087;28;20026;-73
2021/03/10 06:59:52;;;;;;;2.35;1.30;;;23.00;43.80;;;;;;5007590;28;20031;-72
2021/03/10 07:02:23;;;;;;;2.55;1.00;;;23.10;43.50;;;;;;5004412;28;20049;-69
2021/03/10 07:04:55;;;;;;;1.83;1.00;;;23.10;43.50;;;;;;5005702;28;20037;-72
2021/03/10 07:07:22;;;;;;;1.70;1.08;;;23.20;43.60;;;;;;5007829;28;20034;-71
2021/03/10 07:09:48;;;;;;;2.53;1.00;;;23.30;43.40;;;;;;5011084;28;20105;-72
2021/03/10 07:12:18;;;;;;;1.63;1.00;;;23.30;43.30;;;;;;5010293;28;20652;-73
2021/03/10 07:14:45;;;;;;;1.65;1.13;;;23.50;43.00;;;;;;5009049;28;20055;-72
2021/03/10 07:17:13;;;;;;;2.47;1.10;;;23.70;42.80;;;;;;5005035;28;20033;-72
2021/03/10 07:19:39;;;;;;;2.08;0.90;;;23.70;42.60;;;;;;5006586;28;20051;-71
2021/03/10 07:22:12;;;;;;;2.13;0.90;;;23.70;42.60;;;;;;5006147;28;20080;-71
2021/03/10 07:25:05;;;;;;;1.95;1.13;;;23.60;42.50;;;;;;5008918;28;20112;-72
2021/03/10 07:27:43;;;;;;;2.00;1.10;;;23.60;42.60;;;;;;5009423;28;20052;-70
2021/03/10 07:30:11;;;;;;;1.90;1.00;;;23.70;42.70;;;;;;5008165;28;20417;-71
2021/03/10 07:32:37;;;;;;;1.92;0.90;;;23.70;42.70;;;;;;5009561;28;20038;-65
2021/03/10 07:35:10;;;;;;;2.35;0.93;;;23.80;42.40;;;;;;5007982;28;20040;-71
2021/03/10 07:37:38;;;;;;;1.25;0.90;;;23.80;42.40;;;;;;5005206;28;20015;-68
2021/03/10 07:40:15;;;;;;;2.47;1.17;;;23.80;42.40;;;;;;5009020;28;20024;-71
2021/03/10 07:42:58;;;;;;;2.40;1.00;;;23.80;42.40;;;;;;5009693;28;20064;-70
2021/03/10 07:45:40;;;;;;;1.85;0.98;;;23.80;42.70;;;;;;5005201;28;20136;-68
2021/03/10 07:48:06;;;;;;;1.33;0.90;;;23.90;42.60;;;;;;5007921;28;20028;-70
2021/03/10 07:50:42;;;;;;;1.65;0.98;;;24.00;42.20;;;;;;5004675;28;20181;-68
2021/03/10 07:53:08;;;;;;;1.67;0.98;;;24.00;42.10;;;;;;5009235;28;20029;-73
2021/03/10 07:55:45;;;;;;;1.90;1.00;;;24.00;42.20;;;;;;5014505;28;20036;-72
2021/03/10 07:58:11;;;;;;;1.13;0.80;;;24.00;42.20;;;;;;5001670;28;20034;-67
2021/03/10 08:00:38;;;;;;;1.45;1.00;;;24.00;42.50;;;;;;5028575;28;20041;-69
2021/03/10 08:03:04;;;;;;;1.38;1.00;;;24.00;42.40;;;;;;5015887;28;20025;-71
2021/03/10 08:05:30;;;;;;;1.42;0.80;;;24.00;42.40;;;;;;5007585;28;20041;-71
2021/03/10 08:08:13;;;;;;;1.52;0.88;;;24.00;42.30;;;;;;5003702;28;20022;-70
2021/03/10 08:10:40;;;;;;;1.42;1.00;;;24.00;42.30;;;;;;5007217;28;20315;-70
2021/03/10 08:13:20;;;;;;;1.33;1.00;;;24.00;42.30;;;;;;5011008;28;20502;-70
2021/03/10 08:15:46;;;;;;;1.60;1.00;;;24.00;42.60;;;;;;5015777;28;20025;-72
2021/03/10 08:18:12;;;;;;;1.40;0.90;;;24.10;42.40;;;;;;5019430;28;20084;-70
2021/03/10 08:20:39;;;;;;;1.20;0.90;;;24.10;42.30;;;;;;5012100;28;20053;-71
2021/03/10 08:23:06;;;;;;;1.48;1.02;;;24.10;42.30;;;;;;5015576;28;20022;-70
2021/03/10 08:25:33;;;;;;;1.00;0.80;;;24.10;42.20;;;;;;5010346;28;20036;-69
2021/03/10 08:28:09;;;;;;;1.88;0.88;;;24.10;42.30;;;;;;5007628;28;20022;-67
2021/03/10 08:30:35;;;;;;;1.50;0.90;;;24.10;42.60;;;;;;5007401;28;20443;-69
2021/03/10 08:33:08;;;;;;;1.10;0.80;;;24.10;42.50;;;;;;5005914;28;20038;-68
2021/03/10 08:35:34;;;;;;;1.77;1.10;;;24.20;42.30;;;;;;5004348;28;20125;-66
2021/03/10 08:38:03;;;;;;;1.27;0.80;;;24.20;42.40;;;;;;5010111;28;20026;-68
2021/03/10 08:40:30;;;;;;;1.50;0.80;;;24.10;42.30;;;;;;5010433;28;20026;-67
2021/03/10 08:42:57;;;;;;;1.40;0.95;;;24.20;42.30;;;;;;5008738;28;20037;-72
2021/03/10 08:45:31;;;;;;;2.35;0.90;;;24.20;42.30;;;;;;5007677;28;20026;-71
2021/03/10 08:48:03;;;;;;;1.13;0.80;;;24.20;42.30;;;;;;5007813;28;20030;-70
2021/03/10 08:50:37;;;;;;;1.70;0.98;;;24.20;42.50;;;;;;5004374;28;20125;-68
2021/03/10 08:53:04;;;;;;;1.42;0.90;;;24.20;42.50;;;;;;5009497;28;20352;-64
2021/03/10 08:55:30;;;;;;;1.83;1.00;;;24.20;42.50;;;;;;5008183;28;20042;-72
2021/03/10 08:57:59;;;;;;;1.42;0.90;;;24.20;42.50;;;;;;5010016;28;20045;-71
2021/03/10 09:00:27;;;;;;;1.38;0.90;;;24.20;42.50;;;;;;5007685;28;20535;-67
2021/03/10 09:02:53;;;;;;;1.30;0.90;;;24.20;42.60;;;;;;4998093;28;20492;-73
2021/03/10 09:05:27;;;;;;;1.67;0.80;;;24.20;42.50;;;;;;5008950;28;20479;-71
2021/03/10 09:07:53;;;;;;;1.15;0.90;;;24.20;42.40;;;;;;5013070;28;20029;-70
2021/03/10 09:10:21;;;;;;;1.55;0.90;;;24.20;42.40;;;;;;5014682;28;20030;-69
2021/03/10 09:12:48;;;;;;;1.60;0.93;;;24.20;42.40;;;;;;5010863;28;20030;-70
2021/03/10 09:15:17;;;;;;;0.90;0.70;;;24.20;42.40;;;;;;5008332;28;20479;-69
2021/03/10 09:17:43;;;;;;;1.77;0.88;;;24.20;42.40;;;;;;5015311;28;20500;-71
2021/03/10 09:20:23;;;;;;;1.20;0.80;;;24.20;42.50;;;;;;5017598;28;20022;-69
2021/03/10 09:22:48;;;;;;;1.10;0.80;;;24.10;42.40;;;;;;5015683;28;20346;-69
2021/03/10 09:25:16;;;;;;;1.52;0.95;;;24.10;42.40;;;;;;5012492;28;20018;-74
2021/03/10 09:27:42;;;;;;;1.27;0.80;;;24.10;42.40;;;;;;5025713;28;20060;-68
2021/03/10 09:30:14;;;;;;;1.30;0.90;;;24.10;42.40;;;;;;5011896;28;20061;-71
2021/03/10 09:32:44;;;;;;;0.98;0.73;;;24.20;42.50;;;;;;5015084;28;20055;-67
2021/03/10 09:35:21;;;;;;;1.00;0.80;;;24.20;42.50;;;;;;5009396;28;20044;-66
2021/03/10 09:38:02;;;;;;;1.30;0.85;;;24.20;42.50;;;;;;5010820;28;20049;-70
2021/03/10 09:40:38;;;;;;;0.93;0.73;;;24.20;42.50;;;;;;5012615;28;20026;-73
2021/03/10 09:43:08;;;;;;;2.70;0.90;;;24.20;42.60;;;;;;5008864;28;20026;-65
2021/03/10 09:45:37;;;;;;;2.22;0.80;;;24.20;42.60;;;;;;5011459;28;20038;-69
2021/03/10 09:48:08;;;;;;;1.10;0.75;;;24.20;42.60;;;;;;5009098;28;20491;-67
2021/03/10 09:50:36;;;;;;;1.58;0.90;;;24.10;42.60;;;;;;5010874;28;20033;-73
2021/03/10 09:53:32;;;;;;;1.27;1.00;;;24.10;42.60;;;;;;5008941;28;20026;-65
2021/03/10 09:56:26;;;;;;;1.30;0.90;;;24.20;42.60;;;;;;4997091;28;20038;-70
2021/03/10 09:58:57;;;;;;;1.35;0.80;;;24.20;42.60;;;;;;5000044;28;20042;-70
2021/03/10 10:01:24;;;;;;;1.17;0.90;;;24.20;42.60;;;;;;5011832;28;20038;-71
2021/03/10 10:03:50;;;;;;;1.13;0.82;;;24.20;42.60;;;;;;5015664;28;20029;-71
2021/03/10 10:06:20;;;;;;;0.98;0.75;;;24.20;42.60;;;;;;5011297;28;20034;-72
2021/03/10 10:08:46;;;;;;;0.70;0.70;;;24.20;42.60;;;;;;4995681;28;20557;-65
2021/03/10 10:11:13;;;;;;;0.85;0.70;;;24.10;42.80;;;;;;5009223;28;20029;-69
2021/03/10 10:13:40;;;;;;;1.45;0.77;;;24.10;42.80;;;;;;4995194;28;20022;-64
2021/03/10 10:16:07;;;;;;;1.02;0.80;;;24.20;42.90;;;;;;5007858;28;20139;-61
2021/03/10 10:18:32;;;;;;;1.45;0.90;;;24.20;42.80;;;;;;4998075;28;20037;-62
2021/03/10 10:20:58;;;;;;;1.30;1.10;;;24.20;42.80;;;;;;5008760;28;20022;-60
2021/03/10 10:23:23;;;;;;;1.10;0.80;;;24.20;42.70;;;;;;5011940;28;20049;-63
2021/03/10 10:25:49;;;;;;;1.52;0.93;;;24.20;42.70;;;;;;5010682;28;20122;-62
2021/03/10 10:28:15;;;;;;;1.17;0.80;;;24.10;42.70;;;;;;5011569;28;20091;-62
2021/03/10 10:30:40;;;;;;;0.93;0.80;;;24.20;42.70;;;;;;5009260;28;20038;-65
2021/03/10 10:33:06;;;;;;;1.45;0.90;;;24.20;42.70;;;;;;5008481;28;20084;-62
2021/03/10 10:35:31;;;;;;;1.92;0.90;;;24.20;42.70;;;;;;5008422;28;20105;-64
2021/03/10 10:37:57;;;;;;;0.77;0.63;;;24.10;42.60;;;;;;5006711;28;20072;-61
2021/03/10 10:40:23;;;;;;;0.70;0.70;;;24.20;42.70;;;;;;5008221;28;20087;-65
2021/03/10 10:42:50;;;;;;;1.00;0.80;;;24.20;42.70;;;;;;5008427;28;20635;-62
2021/03/10 10:45:17;;;;;;;1.48;0.90;;;24.20;42.70;;;;;;5007793;28;20038;-64
2021/03/10 10:47:44;;;;;;;0.90;0.73;;;24.20;42.70;;;;;;5007614;28;20049;-63
2021/03/10 10:50:12;;;;;;;1.70;0.85;;;24.20;42.70;;;;;;5007919;28;20465;-63
2021/03/10 10:52:38;;;;;;;1.10;0.80;;;24.20;42.70;;;;;;5010449;28;20426;-62
2021/03/10 10:55:06;;;;;;;1.25;0.70;;;24.20;42.70;;;;;;5010976;28;20121;-62
2021/03/10 10:57:32;;;;;;;1.38;0.80;;;24.20;42.70;;;;;;5008149;28;20030;-63
2021/03/10 10:59:57;;;;;;;1.70;0.80;;;24.20;42.70;;;;;;4993334;28;20038;-62
2021/03/10 11:02:23;;;;;;;1.67;0.90;;;24.30;42.70;;;;;;4991577;28;20042;-61
2021/03/10 11:04:48;;;;;;;2.33;0.80;;;24.20;42.70;;;;;;5001608;28;20033;-60
2021/03/10 11:07:14;;;;;;;1.27;0.80;;;24.30;42.70;;;;;;5005842;28;20429;-64
2021/03/10 11:09:40;;;;;;;1.83;0.90;;;24.30;42.70;;;;;;5009631;28;20018;-61
2021/03/10 11:12:11;;;;;;;1.13;0.73;;;24.30;42.70;;;;;;5003818;28;20023;-61
2021/03/10 11:14:39;;;;;;;1.85;0.85;;;24.30;42.80;;;;;;4999296;28;20032;-64
2021/03/10 11:17:05;;;;;;;0.88;0.77;;;24.30;42.90;;;;;;5008062;28;20026;-59
2021/03/10 11:19:30;;;;;;;0.95;0.68;;;24.30;42.90;;;;;;5006426;28;20029;-63
2021/03/10 11:21:56;;;;;;;0.80;0.70;;;24.30;42.90;;;;;;5006045;28;20532;-67
2021/03/10 11:24:22;;;;;;;1.35;0.88;;;24.20;42.80;;;;;;5007358;28;20021;-64
2021/03/10 11:26:48;;;;;;;0.93;0.80;;;24.30;42.90;;;;;;5001419;28;20028;-64
2021/03/10 11:29:13;;;;;;;1.52;0.98;;;24.20;42.80;;;;;;5007557;28;20433;-64
2021/03/10 11:31:39;;;;;;;1.30;0.80;;;24.30;42.80;;;;;;5006514;28;20137;-64
2021/03/10 11:34:05;;;;;;;1.10;0.80;;;24.30;42.80;;;;;;5006155;28;20018;-62
2021/03/10 11:36:32;;;;;;;1.50;0.70;;;24.30;42.80;;;;;;5006895;28;20602;-61
2021/03/10 11:38:57;;;;;;;1.10;0.80;;;24.30;42.80;;;;;;5007444;28;20374;-62
2021/03/10 11:41:23;;;;;;;0.80;0.80;;;24.20;42.70;;;;;;5007558;28;20045;-61
2021/03/10 11:43:49;;;;;;;1.10;0.80;;;24.30;42.80;;;;;;5008329;28;20030;-61
2021/03/10 11:46:14;;;;;;;0.93;0.80;;;24.30;42.80;;;;;;5004077;28;20061;-61
2021/03/10 11:48:40;;;;;;;1.40;0.70;;;24.30;42.90;;;;;;5005069;28;20104;-64
2021/03/10 11:51:07;;;;;;;0.88;0.70;;;24.30;42.80;;;;;;5006456;28;20034;-63
2021/03/10 11:53:32;;;;;;;0.70;0.70;;;24.30;42.80;;;;;;4994654;28;20073;-65
2021/03/10 11:55:58;;;;;;;1.40;0.80;;;24.30;42.90;;;;;;5005597;28;20428;-64
2021/03/10 11:58:26;;;;;;;1.50;0.90;;;24.30;42.80;;;;;;5003575;28;20469;-65
2021/03/10 12:00:55;;;;;;;1.45;0.90;;;24.30;42.80;;;;;;4994194;28;20116;-72
2021/03/10 12:03:20;;;;;;;0.60;0.60;;;24.30;42.80;;;;;;5005678;28;20495;-72
2021/03/10 12:05:47;;;;;;;1.15;0.82;;;24.30;42.80;;;;;;5007350;28;20034;-74
2021/03/10 12:08:12;;;;;;;0.75;0.73;;;24.30;42.80;;;;;;5008035;28;20069;-67
2021/03/10 12:10:40;;;;;;;0.80;0.70;;;24.30;42.80;;;;;;5005257;28;20418;-72
2021/03/10 12:13:07;;;;;;;0.63;0.55;;;24.30;42.80;;;;;;5007693;28;20026;-72
2021/03/10 12:15:33;;;;;;;1.27;0.80;;;24.30;42.80;;;;;;5003342;28;20033;-71
2021/03/10 12:17:59;;;;;;;0.93;0.70;;;24.30;42.80;;;;;;5000866;28;20442;-66
2021/03/10 12:20:24;;;;;;;0.80;0.70;;;24.30;42.80;;;;;;5003422;28;20484;-69
2021/03/10 12:22:50;;;;;;;1.02;0.70;;;24.30;42.90;;;;;;5003744;28;20022;-66
2021/03/10 12:25:16;;;;;;;1.33;0.70;;;24.40;43.40;;;;;;5004302;28;20053;-69
2021/03/10 12:27:41;;;;;;;1.10;0.80;;;24.30;42.90;;;;;;5006169;28;20492;-70
2021/03/10 12:30:08;;;;;;;0.93;0.70;;;24.40;43.00;;;;;;5001514;28;20030;-73
2021/03/10 12:32:35;;;;;;;0.52;0.50;;;24.40;43.00;;;;;;5004561;28;20022;-69
2021/03/10 12:35:02;;;;;;;0.50;0.50;;;24.40;43.00;;;;;;5007462;28;20072;-69
2021/03/10 12:37:27;;;;;;;0.93;0.70;;;24.40;43.10;;;;;;5006533;28;20025;-70
2021/03/10 12:39:53;;;;;;;1.23;0.70;;;24.40;43.10;;;;;;5005529;28;20476;-70
2021/03/10 12:42:19;;;;;;;1.17;0.70;;;24.40;43.10;;;;;;5006400;28;20384;-69
2021/03/10 12:44:45;;;;;;;1.27;0.80;;;24.40;43.10;;;;;;5005876;28;20034;-69
2021/03/10 12:47:11;;;;;;;1.05;0.70;;;24.50;43.10;;;;;;5003958;28;20030;-73
2021/03/10 12:49:38;;;;;;;1.02;0.80;;;24.50;43.00;;;;;;5004898;28;20030;-70
2021/03/10 12:52:04;;;;;;;0.85;0.70;;;24.50;43.10;;;;;;5006921;28;20630;-68